sensor_id;sensor_type;location;lat;lon;timestamp;P1;durP1;ratioP1;P2;durP2;ratioP2
53245;SDS011;39569;51.090;-1.786;2023-09-18T00:00:53;4.88;;;4.47;;
53245;SDS011;39569;51.090;-1.786;2023-09-18T00:03:21;4.75;;;4.35;;
53245;SDS011;39569;51.090;-1.786;2023-09-18T00:05:49;5.65;;;5.20;;
53245;SDS011;39569;51.090;-1.786;2023-09-18T00:08:17;5.95;;;5.47;;
53245;SDS011;39569;51.090;-1.786;2023-09-18T00:10:47;6.22;;;5.72;;
53245;SDS011;39569;51.090;-1.786;2023-09-18T00:13:17;5.38;;;4.88;;
53245;SDS011;39569;51.090;-1.786;2023-09-18T00:15:44;5.28;;;4.78;;
53245;SDS011;39569;51.090;-1.786;2023-09-18T00:18:12;6.13;;;4.65;;
53245;SDS011;39569;51.090;-1.786;2023-09-18T00:20:40;4.97;;;4.55;;
53245;SDS011;39569;51.090;-1.786;2023-09-18T00:23:07;5.28;;;4.75;;
53245;SDS011;39569;51.090;-1.786;2023-09-18T00:25:35;6.50;;;4.50;;
53245;SDS011;39569;51.090;-1.786;2023-09-18T00:28:04;3.28;;;3.08;;
53245;SDS011;39569;51.090;-1.786;2023-09-18T00:30:31;3.22;;;2.75;;
53245;SDS011;39569;51.090;-1.786;2023-09-18T00:32:58;3.42;;;3.13;;
53245;SDS011;39569;51.090;-1.786;2023-09-18T00:35:24;3.85;;;2.80;;
53245;SDS011;39569;51.090;-1.786;2023-09-18T00:37:51;5.00;;;2.80;;
53245;SDS011;39569;51.090;-1.786;2023-09-18T00:40:18;3.60;;;3.40;;
53245;SDS011;39569;51.090;-1.786;2023-09-18T00:42:45;4.22;;;3.83;;
53245;SDS011;39569;51.090;-1.786;2023-09-18T00:45:13;3.50;;;3.30;;
53245;SDS011;39569;51.090;-1.786;2023-09-18T00:47:40;4.32;;;2.92;;
53245;SDS011;39569;51.090;-1.786;2023-09-18T00:50:07;4.63;;;2.90;;
53245;SDS011;39569;51.090;-1.786;2023-09-18T00:52:38;6.40;;;3.17;;
53245;SDS011;39569;51.090;-1.786;2023-09-18T00:55:06;3.80;;;2.65;;
53245;SDS011;39569;51.090;-1.786;2023-09-18T00:57:35;3.88;;;3.58;;
53245;SDS011;39569;51.090;-1.786;2023-09-18T01:00:02;5.85;;;3.10;;
53245;SDS011;39569;51.090;-1.786;2023-09-18T01:02:31;2.67;;;2.47;;
53245;SDS011;39569;51.090;-1.786;2023-09-18T01:04:58;2.90;;;2.58;;
53245;SDS011;39569;51.090;-1.786;2023-09-18T01:07:25;2.72;;;2.58;;
53245;SDS011;39569;51.090;-1.786;2023-09-18T01:09:53;2.60;;;2.40;;
53245;SDS011;39569;51.090;-1.786;2023-09-18T01:12:22;3.00;;;2.70;;
53245;SDS011;39569;51.090;-1.786;2023-09-18T01:14:56;3.17;;;2.97;;
53245;SDS011;39569;51.090;-1.786;2023-09-18T01:17:26;3.40;;;3.20;;
53245;SDS011;39569;51.090;-1.786;2023-09-18T01:19:54;2.35;;;2.25;;
53245;SDS011;39569;51.090;-1.786;2023-09-18T01:22:21;2.95;;;2.75;;
53245;SDS011;39569;51.090;-1.786;2023-09-18T01:24:49;6.00;;;2.17;;
53245;SDS011;39569;51.090;-1.786;2023-09-18T01:27:17;2.72;;;2.53;;
53245;SDS011;39569;51.090;-1.786;2023-09-18T01:29:44;3.10;;;2.80;;
53245;SDS011;39569;51.090;-1.786;2023-09-18T01:32:11;4.18;;;3.05;;
53245;SDS011;39569;51.090;-1.786;2023-09-18T01:34:39;3.00;;;2.80;;
53245;SDS011;39569;51.090;-1.786;2023-09-18T01:37:09;2.90;;;2.55;;
53245;SDS011;39569;51.090;-1.786;2023-09-18T01:39:36;2.65;;;2.45;;
53245;SDS011;39569;51.090;-1.786;2023-09-18T01:42:06;5.20;;;2.78;;
53245;SDS011;39569;51.090;-1.786;2023-09-18T01:44:34;2.33;;;2.22;;
53245;SDS011;39569;51.090;-1.786;2023-09-18T01:47:02;4.70;;;3.17;;
53245;SDS011;39569;51.090;-1.786;2023-09-18T01:49:31;9.18;;;3.30;;
53245;SDS011;39569;51.090;-1.786;2023-09-18T01:51:59;2.53;;;2.33;;
53245;SDS011;39569;51.090;-1.786;2023-09-18T01:54:26;3.20;;;2.95;;
53245;SDS011;39569;51.090;-1.786;2023-09-18T01:56:53;3.85;;;3.45;;
53245;SDS011;39569;51.090;-1.786;2023-09-18T01:59:22;3.42;;;3.08;;
53245;SDS011;39569;51.090;-1.786;2023-09-18T02:01:49;5.57;;;3.03;;
53245;SDS011;39569;51.090;-1.786;2023-09-18T02:04:17;3.72;;;2.95;;
53245;SDS011;39569;51.090;-1.786;2023-09-18T02:06:44;2.85;;;2.70;;
53245;SDS011;39569;51.090;-1.786;2023-09-18T02:09:11;2.63;;;2.42;;
53245;SDS011;39569;51.090;-1.786;2023-09-18T02:11:38;2.53;;;2.33;;
53245;SDS011;39569;51.090;-1.786;2023-09-18T02:14:06;3.30;;;2.58;;
53245;SDS011;39569;51.090;-1.786;2023-09-18T02:16:36;5.53;;;3.42;;
53245;SDS011;39569;51.090;-1.786;2023-09-18T02:19:06;3.38;;;3.08;;
53245;SDS011;39569;51.090;-1.786;2023-09-18T02:21:33;3.40;;;3.15;;
53245;SDS011;39569;51.090;-1.786;2023-09-18T02:24:00;6.32;;;3.63;;
53245;SDS011;39569;51.090;-1.786;2023-09-18T02:26:27;5.70;;;4.03;;
53245;SDS011;39569;51.090;-1.786;2023-09-18T02:28:54;6.30;;;3.92;;
53245;SDS011;39569;51.090;-1.786;2023-09-18T02:31:21;5.68;;;3.45;;
53245;SDS011;39569;51.090;-1.786;2023-09-18T02:33:50;6.47;;;4.75;;
53245;SDS011;39569;51.090;-1.786;2023-09-18T02:36:16;5.65;;;4.53;;
53245;SDS011;39569;51.090;-1.786;2023-09-18T02:38:43;6.18;;;4.38;;
53245;SDS011;39569;51.090;-1.786;2023-09-18T02:41:10;7.82;;;5.93;;
53245;SDS011;39569;51.090;-1.786;2023-09-18T02:43:36;7.13;;;5.13;;
53245;SDS011;39569;51.090;-1.786;2023-09-18T02:46:04;5.00;;;4.57;;
53245;SDS011;39569;51.090;-1.786;2023-09-18T02:48:31;6.78;;;5.63;;
53245;SDS011;39569;51.090;-1.786;2023-09-18T02:50:59;8.60;;;6.07;;
53245;SDS011;39569;51.090;-1.786;2023-09-18T02:53:27;9.68;;;6.78;;
53245;SDS011;39569;51.090;-1.786;2023-09-18T02:55:54;7.75;;;7.07;;
53245;SDS011;39569;51.090;-1.786;2023-09-18T02:58:22;10.23;;;5.97;;
53245;SDS011;39569;51.090;-1.786;2023-09-18T03:00:51;12.23;;;8.80;;
53245;SDS011;39569;51.090;-1.786;2023-09-18T03:03:18;11.70;;;9.32;;
53245;SDS011;39569;51.090;-1.786;2023-09-18T03:05:45;11.10;;;10.20;;
53245;SDS011;39569;51.090;-1.786;2023-09-18T03:08:14;13.23;;;11.95;;
53245;SDS011;39569;51.090;-1.786;2023-09-18T03:10:41;11.35;;;10.35;;
53245;SDS011;39569;51.090;-1.786;2023-09-18T03:13:09;11.88;;;10.82;;
53245;SDS011;39569;51.090;-1.786;2023-09-18T03:15:37;12.93;;;11.90;;
53245;SDS011;39569;51.090;-1.786;2023-09-18T03:18:04;13.32;;;12.05;;
53245;SDS011;39569;51.090;-1.786;2023-09-18T03:20:32;14.10;;;12.75;;
53245;SDS011;39569;51.090;-1.786;2023-09-18T03:22:59;14.00;;;12.73;;
53245;SDS011;39569;51.090;-1.786;2023-09-18T03:25:29;13.68;;;12.27;;
53245;SDS011;39569;51.090;-1.786;2023-09-18T03:27:56;22.95;;;12.07;;
53245;SDS011;39569;51.090;-1.786;2023-09-18T03:30:24;14.90;;;13.68;;
53245;SDS011;39569;51.090;-1.786;2023-09-18T03:32:51;14.60;;;13.48;;
53245;SDS011;39569;51.090;-1.786;2023-09-18T03:35:19;14.73;;;13.52;;
53245;SDS011;39569;51.090;-1.786;2023-09-18T03:37:46;15.00;;;13.60;;
53245;SDS011;39569;51.090;-1.786;2023-09-18T03:40:13;14.30;;;13.07;;
53245;SDS011;39569;51.090;-1.786;2023-09-18T03:42:42;13.07;;;12.00;;
53245;SDS011;39569;51.090;-1.786;2023-09-18T03:45:09;15.50;;;13.10;;
53245;SDS011;39569;51.090;-1.786;2023-09-18T03:47:36;11.25;;;10.45;;
53245;SDS011;39569;51.090;-1.786;2023-09-18T03:50:05;13.82;;;12.73;;
53245;SDS011;39569;51.090;-1.786;2023-09-18T03:52:32;13.52;;;12.38;;
53245;SDS011;39569;51.090;-1.786;2023-09-18T03:54:59;13.02;;;12.05;;
53245;SDS011;39569;51.090;-1.786;2023-09-18T03:57:25;14.43;;;13.23;;
53245;SDS011;39569;51.090;-1.786;2023-09-18T03:59:53;14.02;;;12.68;;
53245;SDS011;39569;51.090;-1.786;2023-09-18T04:02:20;10.85;;;9.93;;
53245;SDS011;39569;51.090;-1.786;2023-09-18T04:04:47;11.88;;;10.70;;
53245;SDS011;39569;51.090;-1.786;2023-09-18T04:07:14;14.43;;;10.90;;
53245;SDS011;39569;51.090;-1.786;2023-09-18T04:09:42;21.33;;;12.45;;
53245;SDS011;39569;51.090;-1.786;2023-09-18T04:12:09;13.15;;;11.98;;
53245;SDS011;39569;51.090;-1.786;2023-09-18T04:14:35;12.52;;;11.52;;
53245;SDS011;39569;51.090;-1.786;2023-09-18T04:17:04;13.18;;;12.07;;
53245;SDS011;39569;51.090;-1.786;2023-09-18T04:19:30;18.65;;;12.00;;
53245;SDS011;39569;51.090;-1.786;2023-09-18T04:21:57;13.88;;;12.40;;
53245;SDS011;39569;51.090;-1.786;2023-09-18T04:24:25;11.80;;;10.68;;
53245;SDS011;39569;51.090;-1.786;2023-09-18T04:26:52;12.00;;;10.80;;
53245;SDS011;39569;51.090;-1.786;2023-09-18T04:29:19;13.25;;;11.88;;
53245;SDS011;39569;51.090;-1.786;2023-09-18T04:31:46;14.95;;;13.50;;
53245;SDS011;39569;51.090;-1.786;2023-09-18T04:34:14;12.88;;;11.65;;
53245;SDS011;39569;51.090;-1.786;2023-09-18T04:36:41;16.98;;;14.50;;
53245;SDS011;39569;51.090;-1.786;2023-09-18T04:39:09;16.45;;;14.68;;
53245;SDS011;39569;51.090;-1.786;2023-09-18T04:41:36;14.15;;;12.85;;
53245;SDS011;39569;51.090;-1.786;2023-09-18T04:44:04;18.55;;;13.82;;
53245;SDS011;39569;51.090;-1.786;2023-09-18T04:46:31;16.13;;;14.65;;
53245;SDS011;39569;51.090;-1.786;2023-09-18T04:48:57;14.18;;;12.68;;
53245;SDS011;39569;51.090;-1.786;2023-09-18T04:51:25;16.30;;;14.70;;
53245;SDS011;39569;51.090;-1.786;2023-09-18T04:53:52;17.77;;;16.05;;
53245;SDS011;39569;51.090;-1.786;2023-09-18T04:56:20;18.17;;;16.42;;
53245;SDS011;39569;51.090;-1.786;2023-09-18T04:58:46;18.08;;;16.38;;
53245;SDS011;39569;51.090;-1.786;2023-09-18T05:01:13;19.48;;;17.58;;
53245;SDS011;39569;51.090;-1.786;2023-09-18T05:03:40;19.95;;;17.02;;
53245;SDS011;39569;51.090;-1.786;2023-09-18T05:06:07;17.48;;;15.93;;
53245;SDS011;39569;51.090;-1.786;2023-09-18T05:08:35;17.13;;;15.60;;
53245;SDS011;39569;51.090;-1.786;2023-09-18T05:11:04;16.80;;;14.57;;
53245;SDS011;39569;51.090;-1.786;2023-09-18T05:13:30;18.00;;;14.48;;
53245;SDS011;39569;51.090;-1.786;2023-09-18T05:15:57;19.60;;;16.90;;
53245;SDS011;39569;51.090;-1.786;2023-09-18T05:18:24;23.13;;;17.70;;
53245;SDS011;39569;51.090;-1.786;2023-09-18T05:20:50;16.33;;;14.80;;
53245;SDS011;39569;51.090;-1.786;2023-09-18T05:23:17;18.02;;;15.95;;
53245;SDS011;39569;51.090;-1.786;2023-09-18T05:25:45;17.63;;;14.98;;
53245;SDS011;39569;51.090;-1.786;2023-09-18T05:28:12;15.23;;;13.65;;
53245;SDS011;39569;51.090;-1.786;2023-09-18T05:30:39;14.70;;;13.40;;
53245;SDS011;39569;51.090;-1.786;2023-09-18T05:33:06;14.20;;;12.73;;
53245;SDS011;39569;51.090;-1.786;2023-09-18T05:35:34;15.15;;;13.65;;
53245;SDS011;39569;51.090;-1.786;2023-09-18T05:38:02;16.77;;;14.10;;
53245;SDS011;39569;51.090;-1.786;2023-09-18T05:40:30;21.13;;;11.68;;
53245;SDS011;39569;51.090;-1.786;2023-09-18T05:42:58;14.40;;;12.68;;
53245;SDS011;39569;51.090;-1.786;2023-09-18T05:45:25;13.77;;;11.43;;
53245;SDS011;39569;51.090;-1.786;2023-09-18T05:47:52;9.98;;;9.15;;
53245;SDS011;39569;51.090;-1.786;2023-09-18T05:50:19;8.82;;;8.05;;
53245;SDS011;39569;51.090;-1.786;2023-09-18T05:52:46;8.40;;;7.70;;
53245;SDS011;39569;51.090;-1.786;2023-09-18T05:55:14;26.60;;;9.55;;
53245;SDS011;39569;51.090;-1.786;2023-09-18T05:57:41;8.65;;;7.85;;
53245;SDS011;39569;51.090;-1.786;2023-09-18T06:00:10;9.27;;;8.55;;
53245;SDS011;39569;51.090;-1.786;2023-09-18T06:02:39;10.90;;;9.75;;
53245;SDS011;39569;51.090;-1.786;2023-09-18T06:05:06;10.77;;;8.95;;
53245;SDS011;39569;51.090;-1.786;2023-09-18T06:07:36;11.80;;;8.13;;
53245;SDS011;39569;51.090;-1.786;2023-09-18T06:10:03;10.75;;;9.85;;
53245;SDS011;39569;51.090;-1.786;2023-09-18T06:12:30;10.32;;;9.30;;
53245;SDS011;39569;51.090;-1.786;2023-09-18T06:14:57;11.43;;;9.20;;
53245;SDS011;39569;51.090;-1.786;2023-09-18T06:17:25;9.73;;;8.75;;
53245;SDS011;39569;51.090;-1.786;2023-09-18T06:19:52;10.20;;;9.18;;
53245;SDS011;39569;51.090;-1.786;2023-09-18T06:22:19;10.70;;;9.68;;
53245;SDS011;39569;51.090;-1.786;2023-09-18T06:24:45;8.25;;;7.60;;
53245;SDS011;39569;51.090;-1.786;2023-09-18T06:27:12;8.60;;;7.80;;
53245;SDS011;39569;51.090;-1.786;2023-09-18T06:29:39;9.43;;;8.52;;
53245;SDS011;39569;51.090;-1.786;2023-09-18T06:32:08;10.73;;;8.43;;
53245;SDS011;39569;51.090;-1.786;2023-09-18T06:34:36;12.35;;;8.93;;
53245;SDS011;39569;51.090;-1.786;2023-09-18T06:37:03;12.45;;;10.77;;
53245;SDS011;39569;51.090;-1.786;2023-09-18T06:39:31;9.45;;;8.63;;
53245;SDS011;39569;51.090;-1.786;2023-09-18T06:41:58;17.58;;;9.73;;
53245;SDS011;39569;51.090;-1.786;2023-09-18T06:44:25;9.65;;;8.75;;
53245;SDS011;39569;51.090;-1.786;2023-09-18T06:46:51;12.73;;;11.50;;
53245;SDS011;39569;51.090;-1.786;2023-09-18T06:49:18;10.52;;;9.55;;
53245;SDS011;39569;51.090;-1.786;2023-09-18T06:51:47;11.93;;;10.05;;
53245;SDS011;39569;51.090;-1.786;2023-09-18T06:54:13;11.25;;;10.35;;
53245;SDS011;39569;51.090;-1.786;2023-09-18T06:56:40;17.80;;;10.73;;
53245;SDS011;39569;51.090;-1.786;2023-09-18T06:59:09;11.00;;;9.85;;
53245;SDS011;39569;51.090;-1.786;2023-09-18T07:01:36;8.70;;;7.93;;
53245;SDS011;39569;51.090;-1.786;2023-09-18T07:04:03;10.15;;;8.40;;
53245;SDS011;39569;51.090;-1.786;2023-09-18T07:06:30;7.72;;;7.03;;
53245;SDS011;39569;51.090;-1.786;2023-09-18T07:08:58;9.25;;;7.32;;
53245;SDS011;39569;51.090;-1.786;2023-09-18T07:11:25;7.68;;;7.00;;
53245;SDS011;39569;51.090;-1.786;2023-09-18T07:13:52;7.60;;;6.50;;
53245;SDS011;39569;51.090;-1.786;2023-09-18T07:16:19;10.27;;;8.85;;
53245;SDS011;39569;51.090;-1.786;2023-09-18T07:18:46;7.07;;;6.47;;
53245;SDS011;39569;51.090;-1.786;2023-09-18T07:21:12;9.40;;;7.07;;
53245;SDS011;39569;51.090;-1.786;2023-09-18T07:23:39;8.35;;;7.47;;
53245;SDS011;39569;51.090;-1.786;2023-09-18T07:26:07;8.57;;;7.78;;
53245;SDS011;39569;51.090;-1.786;2023-09-18T07:28:34;8.20;;;7.50;;
53245;SDS011;39569;51.090;-1.786;2023-09-18T07:31:05;7.70;;;7.10;;
53245;SDS011;39569;51.090;-1.786;2023-09-18T07:33:32;10.55;;;7.25;;
53245;SDS011;39569;51.090;-1.786;2023-09-18T07:35:59;9.40;;;7.38;;
53245;SDS011;39569;51.090;-1.786;2023-09-18T07:38:26;9.75;;;7.75;;
53245;SDS011;39569;51.090;-1.786;2023-09-18T07:40:52;7.15;;;6.63;;
53245;SDS011;39569;51.090;-1.786;2023-09-18T07:43:21;8.63;;;7.43;;
53245;SDS011;39569;51.090;-1.786;2023-09-18T07:45:48;6.93;;;5.75;;
53245;SDS011;39569;51.090;-1.786;2023-09-18T07:48:15;17.45;;;5.60;;
53245;SDS011;39569;51.090;-1.786;2023-09-18T07:50:45;8.40;;;4.97;;
53245;SDS011;39569;51.090;-1.786;2023-09-18T07:53:14;7.82;;;6.88;;
53245;SDS011;39569;51.090;-1.786;2023-09-18T07:55:41;9.07;;;6.10;;
53245;SDS011;39569;51.090;-1.786;2023-09-18T07:58:08;6.18;;;5.57;;
53245;SDS011;39569;51.090;-1.786;2023-09-18T08:00:36;7.15;;;4.63;;
53245;SDS011;39569;51.090;-1.786;2023-09-18T08:03:03;6.88;;;5.13;;
53245;SDS011;39569;51.090;-1.786;2023-09-18T08:05:30;5.25;;;4.72;;
53245;SDS011;39569;51.090;-1.786;2023-09-18T08:07:57;7.88;;;4.63;;
53245;SDS011;39569;51.090;-1.786;2023-09-18T08:10:24;6.78;;;4.55;;
53245;SDS011;39569;51.090;-1.786;2023-09-18T08:12:51;5.32;;;4.45;;
53245;SDS011;39569;51.090;-1.786;2023-09-18T08:15:18;10.23;;;4.80;;
53245;SDS011;39569;51.090;-1.786;2023-09-18T08:17:47;6.72;;;4.50;;
53245;SDS011;39569;51.090;-1.786;2023-09-18T08:20:14;4.15;;;3.33;;
53245;SDS011;39569;51.090;-1.786;2023-09-18T08:22:41;5.93;;;3.60;;
53245;SDS011;39569;51.090;-1.786;2023-09-18T08:25:08;8.35;;;2.85;;
53245;SDS011;39569;51.090;-1.786;2023-09-18T08:27:36;2.95;;;2.75;;
53245;SDS011;39569;51.090;-1.786;2023-09-18T08:30:07;3.60;;;2.05;;
53245;SDS011;39569;51.090;-1.786;2023-09-18T08:32:35;2.70;;;1.77;;
53245;SDS011;39569;51.090;-1.786;2023-09-18T08:35:03;3.72;;;1.67;;
53245;SDS011;39569;51.090;-1.786;2023-09-18T08:37:31;3.33;;;1.88;;
53245;SDS011;39569;51.090;-1.786;2023-09-18T08:39:58;6.20;;;2.92;;
53245;SDS011;39569;51.090;-1.786;2023-09-18T08:42:25;1.30;;;1.20;;
53245;SDS011;39569;51.090;-1.786;2023-09-18T08:44:56;1.40;;;1.40;;
53245;SDS011;39569;51.090;-1.786;2023-09-18T08:47:25;3.10;;;1.55;;
53245;SDS011;39569;51.090;-1.786;2023-09-18T08:49:53;1.48;;;1.05;;
53245;SDS011;39569;51.090;-1.786;2023-09-18T08:52:23;3.13;;;1.67;;
53245;SDS011;39569;51.090;-1.786;2023-09-18T08:54:51;3.95;;;2.20;;
53245;SDS011;39569;51.090;-1.786;2023-09-18T08:57:20;2.92;;;1.92;;
53245;SDS011;39569;51.090;-1.786;2023-09-18T08:59:47;1.83;;;1.73;;
53245;SDS011;39569;51.090;-1.786;2023-09-18T09:02:16;3.17;;;2.88;;
53245;SDS011;39569;51.090;-1.786;2023-09-18T09:04:43;7.32;;;3.03;;
53245;SDS011;39569;51.090;-1.786;2023-09-18T09:07:10;5.35;;;2.40;;
53245;SDS011;39569;51.090;-1.786;2023-09-18T09:09:38;3.97;;;2.85;;
53245;SDS011;39569;51.090;-1.786;2023-09-18T09:12:07;9.57;;;2.20;;
53245;SDS011;39569;51.090;-1.786;2023-09-18T09:14:34;3.22;;;1.95;;
53245;SDS011;39569;51.090;-1.786;2023-09-18T09:17:01;3.30;;;2.25;;
53245;SDS011;39569;51.090;-1.786;2023-09-18T09:19:29;10.88;;;3.22;;
53245;SDS011;39569;51.090;-1.786;2023-09-18T09:21:57;2.15;;;2.05;;
53245;SDS011;39569;51.090;-1.786;2023-09-18T09:24:35;2.40;;;2.00;;
53245;SDS011;39569;51.090;-1.786;2023-09-18T09:27:04;3.08;;;2.75;;
53245;SDS011;39569;51.090;-1.786;2023-09-18T09:29:31;4.45;;;2.40;;
53245;SDS011;39569;51.090;-1.786;2023-09-18T09:32:11;5.97;;;2.67;;
53245;SDS011;39569;51.090;-1.786;2023-09-18T09:34:40;2.53;;;2.17;;
53245;SDS011;39569;51.090;-1.786;2023-09-18T09:37:07;2.50;;;2.13;;
53245;SDS011;39569;51.090;-1.786;2023-09-18T09:39:34;3.03;;;2.28;;
53245;SDS011;39569;51.090;-1.786;2023-09-18T09:42:03;2.53;;;2.35;;
53245;SDS011;39569;51.090;-1.786;2023-09-18T09:44:31;7.95;;;4.05;;
53245;SDS011;39569;51.090;-1.786;2023-09-18T09:46:58;2.65;;;2.47;;
53245;SDS011;39569;51.090;-1.786;2023-09-18T09:49:26;3.65;;;2.50;;
53245;SDS011;39569;51.090;-1.786;2023-09-18T09:51:58;2.72;;;2.47;;
53245;SDS011;39569;51.090;-1.786;2023-09-18T09:54:35;3.63;;;2.60;;
53245;SDS011;39569;51.090;-1.786;2023-09-18T09:57:07;4.93;;;2.03;;
53245;SDS011;39569;51.090;-1.786;2023-09-18T09:59:34;4.60;;;3.28;;
53245;SDS011;39569;51.090;-1.786;2023-09-18T10:02:01;4.15;;;1.40;;
53245;SDS011;39569;51.090;-1.786;2023-09-18T10:04:28;3.80;;;2.33;;
53245;SDS011;39569;51.090;-1.786;2023-09-18T10:06:58;1.67;;;1.58;;
53245;SDS011;39569;51.090;-1.786;2023-09-18T10:09:32;2.97;;;2.03;;
53245;SDS011;39569;51.090;-1.786;2023-09-18T10:12:01;3.35;;;2.17;;
53245;SDS011;39569;51.090;-1.786;2023-09-18T10:14:37;3.00;;;1.40;;
53245;SDS011;39569;51.090;-1.786;2023-09-18T10:17:09;2.42;;;2.20;;
53245;SDS011;39569;51.090;-1.786;2023-09-18T10:19:44;2.42;;;1.63;;
53245;SDS011;39569;51.090;-1.786;2023-09-18T10:22:20;2.42;;;2.10;;
53245;SDS011;39569;51.090;-1.786;2023-09-18T10:24:54;3.42;;;2.00;;
53245;SDS011;39569;51.090;-1.786;2023-09-18T10:27:26;2.28;;;1.75;;
53245;SDS011;39569;51.090;-1.786;2023-09-18T10:29:55;2.97;;;1.33;;
53245;SDS011;39569;51.090;-1.786;2023-09-18T10:32:22;1.65;;;1.10;;
53245;SDS011;39569;51.090;-1.786;2023-09-18T10:34:53;2.50;;;1.60;;
53245;SDS011;39569;51.090;-1.786;2023-09-18T10:37:20;2.65;;;1.80;;
53245;SDS011;39569;51.090;-1.786;2023-09-18T10:39:49;3.90;;;1.48;;
53245;SDS011;39569;51.090;-1.786;2023-09-18T10:42:19;3.05;;;2.55;;
53245;SDS011;39569;51.090;-1.786;2023-09-18T10:44:47;2.33;;;1.35;;
53245;SDS011;39569;51.090;-1.786;2023-09-18T10:47:16;2.85;;;1.08;;
53245;SDS011;39569;51.090;-1.786;2023-09-18T10:49:45;7.28;;;1.95;;
53245;SDS011;39569;51.090;-1.786;2023-09-18T10:52:12;1.48;;;1.38;;
53245;SDS011;39569;51.090;-1.786;2023-09-18T10:54:39;1.10;;;1.10;;
53245;SDS011;39569;51.090;-1.786;2023-09-18T10:57:06;3.53;;;1.45;;
53245;SDS011;39569;51.090;-1.786;2023-09-18T10:59:33;1.83;;;1.73;;
53245;SDS011;39569;51.090;-1.786;2023-09-18T11:02:02;2.30;;;1.42;;
53245;SDS011;39569;51.090;-1.786;2023-09-18T11:04:31;2.25;;;1.33;;
53245;SDS011;39569;51.090;-1.786;2023-09-18T11:07:02;1.73;;;1.27;;
53245;SDS011;39569;51.090;-1.786;2023-09-18T11:09:31;3.30;;;2.80;;
53245;SDS011;39569;51.090;-1.786;2023-09-18T11:14:43;5.28;;;2.40;;
53245;SDS011;39569;51.090;-1.786;2023-09-18T11:20:03;4.45;;;2.70;;
53245;SDS011;39569;51.090;-1.786;2023-09-18T11:22:34;4.35;;;2.88;;
53245;SDS011;39569;51.090;-1.786;2023-09-18T11:27:59;9.63;;;3.28;;
53245;SDS011;39569;51.090;-1.786;2023-09-18T11:30:27;2.58;;;2.38;;
53245;SDS011;39569;51.090;-1.786;2023-09-18T11:32:54;2.42;;;2.15;;
53245;SDS011;39569;51.090;-1.786;2023-09-18T11:35:23;3.15;;;2.45;;
53245;SDS011;39569;51.090;-1.786;2023-09-18T11:38:02;6.03;;;2.70;;
53245;SDS011;39569;51.090;-1.786;2023-09-18T11:40:32;3.97;;;2.60;;
53245;SDS011;39569;51.090;-1.786;2023-09-18T11:43:19;5.60;;;3.10;;
53245;SDS011;39569;51.090;-1.786;2023-09-18T11:45:50;4.80;;;2.65;;
53245;SDS011;39569;51.090;-1.786;2023-09-18T11:48:18;3.13;;;2.55;;
53245;SDS011;39569;51.090;-1.786;2023-09-18T11:50:46;3.67;;;3.35;;
53245;SDS011;39569;51.090;-1.786;2023-09-18T11:53:15;3.13;;;2.45;;
53245;SDS011;39569;51.090;-1.786;2023-09-18T11:55:44;5.18;;;2.67;;
53245;SDS011;39569;51.090;-1.786;2023-09-18T11:58:11;4.45;;;2.38;;
53245;SDS011;39569;51.090;-1.786;2023-09-18T12:00:39;5.57;;;2.88;;
53245;SDS011;39569;51.090;-1.786;2023-09-18T12:03:15;3.08;;;2.20;;
53245;SDS011;39569;51.090;-1.786;2023-09-18T12:05:55;2.03;;;1.77;;
53245;SDS011;39569;51.090;-1.786;2023-09-18T12:08:23;4.70;;;2.75;;
53245;SDS011;39569;51.090;-1.786;2023-09-18T12:10:52;2.80;;;2.22;;
53245;SDS011;39569;51.090;-1.786;2023-09-18T12:13:19;4.20;;;2.65;;
53245;SDS011;39569;51.090;-1.786;2023-09-18T12:15:47;2.28;;;2.00;;
53245;SDS011;39569;51.090;-1.786;2023-09-18T12:18:14;5.30;;;1.73;;
53245;SDS011;39569;51.090;-1.786;2023-09-18T12:20:45;3.33;;;1.92;;
53245;SDS011;39569;51.090;-1.786;2023-09-18T12:23:14;3.35;;;2.40;;
53245;SDS011;39569;51.090;-1.786;2023-09-18T12:25:41;5.97;;;3.65;;
53245;SDS011;39569;51.090;-1.786;2023-09-18T12:28:11;3.40;;;2.08;;
53245;SDS011;39569;51.090;-1.786;2023-09-18T12:30:40;5.63;;;2.65;;
53245;SDS011;39569;51.090;-1.786;2023-09-18T12:33:07;5.47;;;2.00;;
53245;SDS011;39569;51.090;-1.786;2023-09-18T12:35:34;5.38;;;2.58;;
53245;SDS011;39569;51.090;-1.786;2023-09-18T12:38:03;3.30;;;2.20;;
53245;SDS011;39569;51.090;-1.786;2023-09-18T12:40:41;3.33;;;1.60;;
53245;SDS011;39569;51.090;-1.786;2023-09-18T12:43:11;3.58;;;1.77;;
53245;SDS011;39569;51.090;-1.786;2023-09-18T12:45:40;6.45;;;2.97;;
53245;SDS011;39569;51.090;-1.786;2023-09-18T12:48:07;2.33;;;1.98;;
53245;SDS011;39569;51.090;-1.786;2023-09-18T12:50:35;4.72;;;1.20;;
53245;SDS011;39569;51.090;-1.786;2023-09-18T12:53:06;5.68;;;2.88;;
53245;SDS011;39569;51.090;-1.786;2023-09-18T12:55:35;2.60;;;1.75;;
53245;SDS011;39569;51.090;-1.786;2023-09-18T12:58:03;2.30;;;2.10;;
53245;SDS011;39569;51.090;-1.786;2023-09-18T13:00:33;2.65;;;1.77;;
53245;SDS011;39569;51.090;-1.786;2023-09-18T13:03:00;4.50;;;1.90;;
53245;SDS011;39569;51.090;-1.786;2023-09-18T13:05:29;3.83;;;1.80;;
53245;SDS011;39569;51.090;-1.786;2023-09-18T13:08:01;6.20;;;2.17;;
53245;SDS011;39569;51.090;-1.786;2023-09-18T13:10:29;4.82;;;1.60;;
53245;SDS011;39569;51.090;-1.786;2023-09-18T13:12:57;4.00;;;1.75;;
53245;SDS011;39569;51.090;-1.786;2023-09-18T13:15:25;2.85;;;1.48;;
53245;SDS011;39569;51.090;-1.786;2023-09-18T13:17:53;6.20;;;2.22;;
53245;SDS011;39569;51.090;-1.786;2023-09-18T13:20:21;2.88;;;1.77;;
53245;SDS011;39569;51.090;-1.786;2023-09-18T13:22:50;3.42;;;1.67;;
53245;SDS011;39569;51.090;-1.786;2023-09-18T13:25:21;7.43;;;1.85;;
53245;SDS011;39569;51.090;-1.786;2023-09-18T13:27:48;1.85;;;0.73;;
53245;SDS011;39569;51.090;-1.786;2023-09-18T13:30:17;4.50;;;1.60;;
53245;SDS011;39569;51.090;-1.786;2023-09-18T13:32:46;1.88;;;1.42;;
53245;SDS011;39569;51.090;-1.786;2023-09-18T13:35:15;4.82;;;1.88;;
53245;SDS011;39569;51.090;-1.786;2023-09-18T13:37:42;1.40;;;1.20;;
53245;SDS011;39569;51.090;-1.786;2023-09-18T13:40:10;1.45;;;1.30;;
53245;SDS011;39569;51.090;-1.786;2023-09-18T13:42:38;5.63;;;2.45;;
53245;SDS011;39569;51.090;-1.786;2023-09-18T13:45:05;2.13;;;1.35;;
53245;SDS011;39569;51.090;-1.786;2023-09-18T13:47:34;2.30;;;1.15;;
53245;SDS011;39569;51.090;-1.786;2023-09-18T13:50:02;2.80;;;1.45;;
53245;SDS011;39569;51.090;-1.786;2023-09-18T13:52:31;1.85;;;1.48;;
53245;SDS011;39569;51.090;-1.786;2023-09-18T13:54:59;5.53;;;1.83;;
53245;SDS011;39569;51.090;-1.786;2023-09-18T13:57:26;3.75;;;1.42;;
53245;SDS011;39569;51.090;-1.786;2023-09-18T13:59:52;5.35;;;1.20;;
53245;SDS011;39569;51.090;-1.786;2023-09-18T14:02:19;3.20;;;1.17;;
53245;SDS011;39569;51.090;-1.786;2023-09-18T14:04:49;3.80;;;1.83;;
53245;SDS011;39569;51.090;-1.786;2023-09-18T14:07:16;6.43;;;1.63;;
53245;SDS011;39569;51.090;-1.786;2023-09-18T14:09:42;1.75;;;1.45;;
53245;SDS011;39569;51.090;-1.786;2023-09-18T14:12:11;5.53;;;1.05;;
53245;SDS011;39569;51.090;-1.786;2023-09-18T14:14:38;4.05;;;1.65;;
53245;SDS011;39569;51.090;-1.786;2023-09-18T14:17:06;3.50;;;1.92;;
53245;SDS011;39569;51.090;-1.786;2023-09-18T14:19:33;3.00;;;1.60;;
53245;SDS011;39569;51.090;-1.786;2023-09-18T14:22:01;1.80;;;1.35;;
53245;SDS011;39569;51.090;-1.786;2023-09-18T14:24:28;3.50;;;1.63;;
53245;SDS011;39569;51.090;-1.786;2023-09-18T14:26:55;2.85;;;1.50;;
53245;SDS011;39569;51.090;-1.786;2023-09-18T14:29:22;10.00;;;2.10;;
53245;SDS011;39569;51.090;-1.786;2023-09-18T14:31:49;10.82;;;2.38;;
53245;SDS011;39569;51.090;-1.786;2023-09-18T14:34:16;5.55;;;2.03;;
53245;SDS011;39569;51.090;-1.786;2023-09-18T14:36:42;4.43;;;2.45;;
53245;SDS011;39569;51.090;-1.786;2023-09-18T14:39:11;5.28;;;2.03;;
53245;SDS011;39569;51.090;-1.786;2023-09-18T14:41:38;6.35;;;1.90;;